createdAt,value
2023-11-30T00:02:44.973Z,98931.00
2023-11-30T00:17:45.358Z,98933.40
2023-11-30T00:33:24.315Z,98929.40
2023-11-30T00:40:59.551Z,98932.20
2023-11-30T00:48:09.925Z,98937.00
2023-11-30T00:52:00.440Z,98948.40
2023-11-30T00:55:48.977Z,98948.40
2023-11-30T00:59:38.640Z,98951.60
2023-11-30T01:03:36.775Z,98946.20
2023-11-30T01:19:05.657Z,98950.20
2023-11-30T01:22:53.810Z,98951.80
2023-11-30T01:26:41.074Z,98955.40
2023-11-30T01:30:27.073Z,98956.40
2023-11-30T01:34:23.742Z,98958.60
2023-11-30T01:38:16.315Z,98962.00
2023-11-30T01:46:02.056Z,98958.20
2023-11-30T01:49:18.964Z,98949.40
2023-11-30T01:53:09.934Z,98948.80
2023-11-30T01:56:54.965Z,98955.60
2023-11-30T02:33:52.519Z,98956.40
2023-11-30T03:12:10.408Z,98959.40
2023-11-30T03:15:34.297Z,98956.80
2023-11-30T03:19:20.067Z,98956.80
2023-11-30T03:23:09.185Z,98963.00
2023-11-30T03:27:06.486Z,98963.20
2023-11-30T03:38:45.388Z,98964.40
2023-11-30T03:42:10.838Z,98964.40
2023-11-30T03:53:29.721Z,98964.20
2023-11-30T04:04:46.372Z,98964.80
2023-11-30T04:36:55.262Z,98953.00
2023-11-30T04:48:15.517Z,98952.80
2023-11-30T04:51:59.395Z,98953.80
2023-11-30T04:55:50.028Z,98952.00
2023-11-30T05:11:19.139Z,98955.80
2023-11-30T05:53:11.265Z,98963.00
2023-11-30T05:56:43.788Z,98964.40
2023-11-30T06:00:34.349Z,98965.20
2023-11-30T06:03:14.170Z,98964.40
2023-11-30T06:05:41.873Z,98965.60
2023-11-30T06:08:09.620Z,98965.80
2023-11-30T06:10:37.311Z,98964.80
2023-11-30T06:13:07.827Z,98968.40
2023-11-30T06:15:35.288Z,98966.60
2023-11-30T06:18:03.172Z,98976.20
2023-11-30T06:20:32.432Z,98977.00
2023-11-30T06:22:59.794Z,98976.20
2023-11-30T06:25:27.011Z,98981.00
2023-11-30T06:27:54.285Z,98978.00
2023-11-30T06:30:21.534Z,98982.20
2023-11-30T06:32:49.229Z,98983.60
2023-11-30T06:35:16.547Z,98981.00
2023-11-30T06:37:43.785Z,98981.60
2023-11-30T06:40:11.931Z,98983.80
2023-11-30T06:42:39.389Z,98981.40
2023-11-30T06:45:08.598Z,98989.40
2023-11-30T06:47:36.058Z,98982.60
2023-11-30T06:50:04.240Z,98981.20
2023-11-30T06:52:31.507Z,98980.20
2023-11-30T06:54:58.694Z,98980.20
2023-11-30T06:57:26.030Z,98981.80
2023-11-30T06:59:53.443Z,98976.60
2023-11-30T07:02:20.740Z,98981.60
2023-11-30T07:04:48.268Z,98977.80
2023-11-30T07:07:24.190Z,98973.20
2023-11-30T07:10:00.552Z,98974.60
2023-11-30T07:12:28.031Z,98978.20
2023-11-30T07:14:55.509Z,98978.20
2023-11-30T07:17:24.653Z,98976.40
2023-11-30T07:19:53.270Z,98985.40
2023-11-30T07:22:21.290Z,98987.20
2023-11-30T07:24:49.333Z,98987.80
2023-11-30T07:27:20.956Z,98989.40
2023-11-30T07:29:48.987Z,98983.80
2023-11-30T07:32:17.821Z,98984.20
2023-11-30T07:34:46.095Z,98984.20
2023-11-30T07:37:20.981Z,98996.20
2023-11-30T07:39:48.322Z,98989.60
2023-11-30T07:42:29.440Z,98989.60
2023-11-30T07:45:03.630Z,98988.60
2023-11-30T07:47:31.901Z,98990.00
2023-11-30T07:50:00.103Z,98987.20
2023-11-30T07:52:28.114Z,98985.00
2023-11-30T07:54:55.479Z,98984.80
2023-11-30T07:57:23.095Z,98986.40
2023-11-30T07:59:51.159Z,98990.80
2023-11-30T08:02:18.537Z,98985.80
2023-11-30T08:04:45.752Z,98984.60
2023-11-30T08:07:13.019Z,98981.00
2023-11-30T08:09:40.250Z,98979.40
2023-11-30T08:12:07.545Z,98982.40
2023-11-30T08:14:35.333Z,98978.40
2023-11-30T08:17:05.542Z,98974.20
2023-11-30T08:19:33.659Z,98978.20
2023-11-30T08:22:01.064Z,98979.20
2023-11-30T08:24:29.968Z,98970.80
2023-11-30T08:26:57.787Z,98974.60
2023-11-30T08:29:25.142Z,98980.20
2023-11-30T08:31:52.648Z,98982.00
2023-11-30T08:34:20.152Z,98984.00
2023-11-30T08:36:48.415Z,98982.80
2023-11-30T08:39:23.200Z,98986.20
2023-11-30T08:41:51.478Z,98988.80
2023-11-30T08:44:18.794Z,98990.00
2023-11-30T08:46:46.412Z,98988.40
2023-11-30T08:49:13.534Z,98984.60
2023-11-30T08:51:45.521Z,98988.40
2023-11-30T08:54:13.485Z,98994.80
2023-11-30T08:56:40.996Z,99000.20
2023-11-30T08:59:08.229Z,98995.00
2023-11-30T09:01:37.078Z,98999.00
2023-11-30T09:04:05.983Z,98994.60
2023-11-30T09:06:34.240Z,98995.00
2023-11-30T09:09:02.383Z,98988.20
2023-11-30T09:11:31.225Z,98992.40
2023-11-30T09:13:58.827Z,98990.40
2023-11-30T09:16:27.191Z,98990.40
2023-11-30T09:18:55.202Z,98990.60
2023-11-30T09:21:23.391Z,98992.20
2023-11-30T09:23:51.515Z,98987.20
2023-11-30T09:26:22.377Z,98984.80
2023-11-30T09:28:49.963Z,98977.00
2023-11-30T09:31:17.850Z,98972.60
2023-11-30T09:33:45.431Z,98972.60
2023-11-30T09:36:13.654Z,98974.00
2023-11-30T09:38:42.081Z,98969.60
2023-11-30T09:41:16.723Z,98965.00
2023-11-30T09:43:46.333Z,98962.00
2023-11-30T09:46:14.400Z,98958.60
2023-11-30T09:48:41.917Z,98958.40
2023-11-30T09:51:11.854Z,98954.60
2023-11-30T09:53:39.511Z,98955.80
2023-11-30T09:56:08.158Z,98949.80
2023-11-30T09:58:38.350Z,98944.80
2023-11-30T10:01:08.617Z,98939.00
2023-11-30T10:03:38.351Z,98939.60
2023-11-30T10:06:07.311Z,98937.60
2023-11-30T10:08:34.611Z,98942.80
2023-11-30T10:11:02.663Z,98939.20
2023-11-30T10:13:29.803Z,98939.00
2023-11-30T10:15:56.989Z,98940.80
2023-11-30T10:18:28.760Z,98936.20
2023-11-30T10:20:56.496Z,98931.20
2023-11-30T10:23:23.847Z,98933.20
2023-11-30T10:25:54.567Z,98933.00
2023-11-30T10:28:23.250Z,98930.40
2023-11-30T10:30:57.131Z,98921.80
2023-11-30T10:33:25.711Z,98921.40
2023-11-30T10:35:54.401Z,98928.00
2023-11-30T10:38:28.681Z,98928.40
2023-11-30T10:41:09.915Z,98929.80
2023-11-30T10:43:44.445Z,98925.60
2023-11-30T10:46:14.170Z,98920.60
2023-11-30T10:48:42.723Z,98924.40
2023-11-30T10:51:12.687Z,98918.20
2023-11-30T10:53:55.970Z,98917.40
2023-11-30T10:56:24.274Z,98918.00
2023-11-30T10:58:52.077Z,98915.80
2023-11-30T11:01:19.301Z,98917.60
2023-11-30T11:03:48.769Z,98918.40
2023-11-30T11:06:17.269Z,98917.80
2023-11-30T11:09:08.295Z,98916.40
2023-11-30T11:11:44.074Z,98921.00
2023-11-30T11:14:33.708Z,98919.60
2023-11-30T11:17:09.105Z,98920.60
2023-11-30T11:19:41.996Z,98916.00
2023-11-30T11:22:27.078Z,98916.80
2023-11-30T11:25:00.855Z,98910.20
2023-11-30T11:27:33.808Z,98910.80
2023-11-30T11:30:07.967Z,98905.60
2023-11-30T11:32:40.973Z,98902.00
2023-11-30T11:35:08.811Z,98897.00
2023-11-30T11:37:37.142Z,98896.40
2023-11-30T11:40:05.417Z,98900.00
2023-11-30T11:42:33.655Z,98899.00
2023-11-30T11:45:03.484Z,98899.80
2023-11-30T11:47:31.668Z,98893.60
2023-11-30T11:50:00.446Z,98894.40
2023-11-30T11:52:31.224Z,98887.80
2023-11-30T11:55:09.273Z,98879.20
2023-11-30T11:57:45.324Z,98870.00
2023-11-30T12:00:19.362Z,98873.80
2023-11-30T12:02:47.821Z,98877.80
2023-11-30T12:05:25.958Z,98876.40
2023-11-30T12:08:03.927Z,98875.00
2023-11-30T12:10:33.151Z,98869.80
2023-11-30T12:13:02.482Z,98864.20
2023-11-30T12:15:30.746Z,98853.00
2023-11-30T12:17:58.242Z,98851.20
2023-11-30T12:20:26.131Z,98856.40
2023-11-30T12:22:54.227Z,98856.60
2023-11-30T12:25:21.997Z,98851.00
2023-11-30T12:27:50.947Z,98841.20
2023-11-30T12:30:22.188Z,98844.00
2023-11-30T12:32:49.731Z,98842.60
2023-11-30T12:35:17.425Z,98842.20
2023-11-30T12:37:44.749Z,98840.80
2023-11-30T12:40:14.555Z,98838.00
2023-11-30T12:42:42.840Z,98832.60
2023-11-30T12:45:11.514Z,98833.20
2023-11-30T12:47:42.606Z,98838.40
2023-11-30T12:50:11.443Z,98839.20
2023-11-30T12:52:39.013Z,98848.60
2023-11-30T12:55:07.859Z,98849.80
2023-11-30T12:57:35.730Z,98855.60
2023-11-30T13:00:10.251Z,98855.40
2023-11-30T13:02:37.855Z,98848.80
2023-11-30T13:05:05.871Z,98848.00
2023-11-30T13:07:33.284Z,98849.20
2023-11-30T13:10:02.653Z,98849.60
2023-11-30T13:12:31.369Z,98850.80
2023-11-30T13:14:58.831Z,98845.20
2023-11-30T13:17:27.650Z,98844.20
2023-11-30T13:19:54.870Z,98843.40
2023-11-30T13:22:22.370Z,98833.00
2023-11-30T13:24:50.001Z,98830.80
2023-11-30T13:27:17.294Z,98833.00
2023-11-30T13:29:44.613Z,98842.60
2023-11-30T13:34:44.319Z,98859.00
2023-11-30T13:37:11.777Z,98855.20
2023-11-30T13:39:39.121Z,98859.80
2023-11-30T13:42:06.604Z,98865.40
2023-11-30T13:44:35.311Z,98863.00
2023-11-30T13:47:03.006Z,98858.40
2023-11-30T13:49:31.770Z,98861.60
2023-11-30T13:51:59.060Z,98858.00
2023-11-30T13:54:27.870Z,98852.20
2023-11-30T13:56:55.109Z,98847.20
2023-11-30T13:59:22.346Z,98855.60
2023-11-30T14:01:49.935Z,98855.20
2023-11-30T14:04:18.673Z,98849.40
2023-11-30T14:06:49.724Z,98850.00
2023-11-30T14:09:26.595Z,98846.80
2023-11-30T14:11:57.166Z,98842.00
2023-11-30T14:14:24.557Z,98846.20
2023-11-30T14:16:51.834Z,98849.80
2023-11-30T14:19:22.122Z,98846.80
2023-11-30T14:21:50.202Z,98849.00
2023-11-30T14:24:17.822Z,98846.20
2023-11-30T14:26:45.003Z,98846.20
2023-11-30T14:29:12.891Z,98842.20
2023-11-30T14:31:43.615Z,98853.00
2023-11-30T14:34:11.095Z,98855.80
2023-11-30T14:36:42.721Z,98858.60
2023-11-30T14:39:10.877Z,98851.20
2023-11-30T14:41:42.694Z,98846.40
2023-11-30T14:44:11.620Z,98851.20
2023-11-30T14:46:39.519Z,98847.40
2023-11-30T14:49:08.392Z,98842.20
2023-11-30T14:51:36.246Z,98841.00
2023-11-30T14:54:06.075Z,98845.20
2023-11-30T14:56:33.623Z,98841.60
2023-11-30T14:59:00.791Z,98841.20
2023-11-30T15:01:28.430Z,98847.00
2023-11-30T15:03:55.879Z,98850.80
2023-11-30T15:06:24.075Z,98859.60
2023-11-30T15:08:52.130Z,98852.80
2023-11-30T15:11:19.408Z,98854.60
2023-11-30T15:13:46.625Z,98856.40
2023-11-30T15:16:13.965Z,98870.40
2023-11-30T15:18:41.199Z,98870.60
2023-11-30T15:21:08.589Z,98866.20
2023-11-30T15:23:36.501Z,98852.60
2023-11-30T15:26:03.986Z,98856.40
2023-11-30T15:28:31.334Z,98854.60
2023-11-30T15:30:59.275Z,98849.40
2023-11-30T15:33:27.307Z,98850.20
2023-11-30T15:35:56.068Z,98857.60
2023-11-30T15:38:30.831Z,98856.20
2023-11-30T15:40:58.439Z,98853.60
2023-11-30T15:43:25.917Z,98861.40
2023-11-30T15:45:53.441Z,98859.20
2023-11-30T15:48:22.094Z,98860.20
2023-11-30T15:50:49.793Z,98862.40
2023-11-30T15:53:17.304Z,98862.60
2023-11-30T15:55:44.885Z,98867.40
2023-11-30T15:58:12.578Z,98872.60
2023-11-30T16:00:40.221Z,98883.20
2023-11-30T16:03:10.322Z,98882.80
2023-11-30T16:05:39.362Z,98886.80
2023-11-30T16:08:06.755Z,98889.00
2023-11-30T16:10:34.047Z,98889.40
2023-11-30T16:13:02.426Z,98887.00
2023-11-30T16:15:29.786Z,98882.20
2023-11-30T16:17:57.398Z,98879.20
2023-11-30T16:20:25.307Z,98880.60
2023-11-30T16:22:52.715Z,98881.60
2023-11-30T16:25:20.476Z,98888.00
2023-11-30T16:27:48.108Z,98893.80
2023-11-30T16:30:15.785Z,98896.20
2023-11-30T16:32:43.337Z,98899.20
2023-11-30T16:35:11.174Z,98905.20
2023-11-30T16:37:38.793Z,98900.60
2023-11-30T16:40:08.913Z,98908.40
2023-11-30T16:42:36.866Z,98905.00
2023-11-30T16:45:06.874Z,98897.00
2023-11-30T16:47:34.881Z,98896.40
2023-11-30T16:50:04.964Z,98898.60
2023-11-30T16:52:32.520Z,98892.80
2023-11-30T16:55:00.076Z,98889.80
2023-11-30T16:57:32.609Z,98885.60
2023-11-30T17:00:04.146Z,98888.00
2023-11-30T17:02:32.139Z,98886.40
2023-11-30T17:05:00.554Z,98883.80
2023-11-30T17:07:29.114Z,98885.40
2023-11-30T17:09:57.171Z,98878.40
2023-11-30T17:12:24.546Z,98875.20
2023-11-30T17:14:52.134Z,98874.80
2023-11-30T17:17:19.554Z,98881.00
2023-11-30T17:19:47.015Z,98878.20
2023-11-30T17:22:15.179Z,98878.00
2023-11-30T17:24:43.173Z,98883.60
2023-11-30T17:27:10.872Z,98886.80
2023-11-30T17:29:40.595Z,98881.40
2023-11-30T17:32:08.992Z,98879.20
2023-11-30T17:34:37.603Z,98878.00
2023-11-30T17:37:05.274Z,98878.80
2023-11-30T17:39:33.494Z,98882.80
2023-11-30T17:42:01.286Z,98880.00
2023-11-30T17:44:28.755Z,98881.00
2023-11-30T17:46:56.282Z,98883.60
2023-11-30T17:49:24.360Z,98879.60
2023-11-30T17:51:53.016Z,98881.20
2023-11-30T17:54:20.570Z,98878.00
2023-11-30T17:56:48.094Z,98875.40
2023-11-30T17:59:16.675Z,98870.20
2023-11-30T18:01:44.315Z,98869.20
2023-11-30T18:04:12.452Z,98869.40
2023-11-30T18:06:41.146Z,98868.00
2023-11-30T18:09:09.115Z,98864.60
2023-11-30T18:11:36.476Z,98865.40
2023-11-30T18:14:04.498Z,98865.40
2023-11-30T18:16:33.675Z,98864.40
2023-11-30T18:19:01.187Z,98871.20
2023-11-30T18:21:32.660Z,98869.20
2023-11-30T18:24:01.124Z,98861.20
2023-11-30T18:26:28.474Z,98847.60
2023-11-30T18:28:56.655Z,98837.60
2023-11-30T18:31:24.360Z,98831.20
2023-11-30T18:33:52.272Z,98826.20
2023-11-30T18:36:20.232Z,98831.80
2023-11-30T18:38:51.226Z,98827.80
2023-11-30T18:41:21.778Z,98824.00
2023-11-30T18:43:51.378Z,98821.80
2023-11-30T18:46:19.552Z,98822.40
2023-11-30T18:48:47.703Z,98823.80
2023-11-30T18:51:16.596Z,98829.00
2023-11-30T18:53:45.081Z,98826.60
2023-11-30T18:56:13.692Z,98828.20
2023-11-30T18:58:42.597Z,98826.60
2023-11-30T19:01:11.706Z,98830.40
2023-11-30T19:03:39.710Z,98840.60
2023-11-30T19:06:15.153Z,98844.60
2023-11-30T19:08:44.769Z,98845.60
2023-11-30T19:11:14.352Z,98841.80
2023-11-30T19:13:42.728Z,98841.20
2023-11-30T19:16:23.882Z,98843.20
2023-11-30T19:18:52.169Z,98844.40
2023-11-30T19:21:20.452Z,98839.40
2023-11-30T19:23:48.754Z,98843.80
2023-11-30T19:26:17.258Z,98843.40
2023-11-30T19:28:45.374Z,98840.80
2023-11-30T19:31:13.872Z,98831.80
2023-11-30T19:33:42.759Z,98827.00
2023-11-30T19:36:12.029Z,98827.00
2023-11-30T19:38:40.915Z,98831.40
2023-11-30T19:41:10.188Z,98825.40
2023-11-30T19:43:39.512Z,98825.80
2023-11-30T19:46:09.933Z,98818.60
2023-11-30T19:48:39.237Z,98815.60
2023-11-30T19:51:08.960Z,98815.40
2023-11-30T19:53:38.076Z,98813.40
2023-11-30T19:56:07.888Z,98805.60
2023-11-30T19:58:41.365Z,98795.80
2023-11-30T20:01:11.915Z,98786.80
2023-11-30T20:03:43.117Z,98788.40
2023-11-30T20:06:16.474Z,98796.20
2023-11-30T20:08:45.697Z,98801.20
2023-11-30T20:11:16.169Z,98804.20
2023-11-30T20:13:46.280Z,98806.60
2023-11-30T20:16:18.538Z,98809.40
2023-11-30T20:18:49.628Z,98812.60
2023-11-30T20:21:22.599Z,98817.00
2023-11-30T20:23:51.660Z,98816.80
2023-11-30T20:26:20.537Z,98822.80
2023-11-30T20:28:48.819Z,98820.20
2023-11-30T20:31:18.145Z,98829.00
2023-11-30T20:33:47.564Z,98831.00
2023-11-30T20:36:16.193Z,98838.60
2023-11-30T20:38:45.014Z,98839.60
2023-11-30T20:41:13.669Z,98841.80
2023-11-30T20:43:41.598Z,98842.40
2023-11-30T20:46:09.694Z,98839.20
2023-11-30T20:48:37.568Z,98833.40
2023-11-30T20:51:05.795Z,98836.60
2023-11-30T20:53:33.445Z,98831.60
2023-11-30T20:56:01.224Z,98836.60
2023-11-30T20:58:28.925Z,98838.40
2023-11-30T21:00:56.485Z,98842.80
2023-11-30T21:03:23.929Z,98835.00
2023-11-30T21:05:51.550Z,98834.60
2023-11-30T21:08:18.962Z,98832.40
2023-11-30T21:10:46.504Z,98840.00
2023-11-30T21:13:13.867Z,98836.00
2023-11-30T21:15:41.234Z,98842.40
2023-11-30T21:18:09.236Z,98833.80
2023-11-30T21:20:37.442Z,98837.00
2023-11-30T21:23:04.771Z,98833.00
2023-11-30T21:25:32.201Z,98833.80
2023-11-30T21:27:59.884Z,98832.60
2023-11-30T21:30:27.698Z,98834.60
2023-11-30T21:32:55.445Z,98832.80
2023-11-30T21:35:23.007Z,98833.20
2023-11-30T21:37:50.833Z,98837.20
2023-11-30T21:40:18.511Z,98835.40
2023-11-30T21:42:46.776Z,98837.20
2023-11-30T21:45:14.885Z,98838.40
2023-11-30T21:47:42.693Z,98848.80
2023-11-30T21:50:18.843Z,98849.60
2023-11-30T21:52:47.903Z,98854.00
2023-11-30T21:55:17.347Z,98857.00
2023-11-30T21:57:48.695Z,98857.40
2023-11-30T22:00:17.524Z,98854.00
2023-11-30T22:02:45.461Z,98849.60
2023-11-30T22:05:23.560Z,98848.60
2023-11-30T22:07:54.724Z,98852.00
2023-11-30T22:10:22.192Z,98851.00
2023-11-30T22:12:49.976Z,98848.00
2023-11-30T22:15:17.369Z,98846.20
2023-11-30T22:17:44.757Z,98843.60
2023-11-30T22:20:12.423Z,98848.80
2023-11-30T22:22:39.685Z,98846.80
2023-11-30T22:25:07.631Z,98850.20
2023-11-30T22:27:35.053Z,98847.80
2023-11-30T22:30:02.388Z,98849.00
2023-11-30T22:32:29.980Z,98850.80
2023-11-30T22:34:57.386Z,98857.60
2023-11-30T22:37:24.854Z,98858.80
2023-11-30T22:39:52.266Z,98861.00
2023-11-30T22:42:19.644Z,98856.00
2023-11-30T22:44:47.138Z,98850.60
2023-11-30T22:47:15.206Z,98846.20
2023-11-30T22:49:42.555Z,98835.60
2023-11-30T22:52:10.019Z,98831.40
2023-11-30T22:54:37.437Z,98828.80
2023-11-30T22:57:05.048Z,98829.40
